createdAt,value
2019-05-09T00:00:39.682Z,-73
2019-05-09T00:03:07.519Z,-70
2019-05-09T00:05:35.273Z,-71
2019-05-09T00:08:03.599Z,-75
2019-05-09T00:10:39.539Z,-72
2019-05-09T00:13:03.275Z,-71
2019-05-09T00:15:33.090Z,-74
2019-05-09T00:18:00.844Z,-72
2019-05-09T00:20:38.480Z,-70
2019-05-09T00:23:06.309Z,-72
2019-05-09T00:25:34.251Z,-72
2019-05-09T00:28:04.161Z,-73
2019-05-09T00:30:50.030Z,-73
2019-05-09T00:33:23.446Z,-71
2019-05-09T00:35:53.319Z,-72
2019-05-09T00:38:23.959Z,-71
2019-05-09T00:40:58.401Z,-73
2019-05-09T00:43:23.664Z,-72
2019-05-09T00:46:10.712Z,-71
2019-05-09T00:48:53.332Z,-73
2019-05-09T00:51:23.299Z,-74
2019-05-09T00:53:51.018Z,-75
2019-05-09T00:56:19.516Z,-74
2019-05-09T00:58:47.348Z,-73
2019-05-09T01:01:15.232Z,-73
2019-05-09T01:03:43.272Z,-73
2019-05-09T01:06:13.203Z,-72
2019-05-09T01:08:41.061Z,-72
2019-05-09T01:11:12.384Z,-74
2019-05-09T01:13:38.702Z,-74
2019-05-09T01:16:06.681Z,-75
2019-05-09T01:18:34.983Z,-74
2019-05-09T01:21:03.990Z,-74
2019-05-09T01:23:34.254Z,-73
2019-05-09T01:26:03.871Z,-71
2019-05-09T01:28:33.931Z,-70
2019-05-09T01:31:03.951Z,-72
2019-05-09T01:33:43.804Z,-72
2019-05-09T01:36:11.595Z,-73
2019-05-09T01:38:39.365Z,-72
2019-05-09T01:41:07.327Z,-70
2019-05-09T01:43:35.087Z,-74
2019-05-09T01:46:04.015Z,-71
2019-05-09T01:48:33.904Z,-71
2019-05-09T01:51:03.207Z,-73
2019-05-09T01:53:34.528Z,-71
2019-05-09T01:56:03.762Z,-71
2019-05-09T01:58:34.250Z,-71
2019-05-09T02:01:04.219Z,-70
2019-05-09T02:03:33.644Z,-70
2019-05-09T02:06:03.458Z,-70
2019-05-09T02:08:34.182Z,-71
2019-05-09T02:11:03.675Z,-72
2019-05-09T02:13:33.646Z,-72
2019-05-09T02:16:23.556Z,-71
2019-05-09T02:18:57.032Z,-72
2019-05-09T02:21:25.029Z,-71
2019-05-09T02:23:53.711Z,-71
2019-05-09T02:26:23.871Z,-70
2019-05-09T02:28:53.639Z,-72
2019-05-09T02:31:24.166Z,-73
2019-05-09T02:33:53.856Z,-71
2019-05-09T02:36:20.781Z,-72
2019-05-09T02:38:48.985Z,-73
2019-05-09T02:41:19.784Z,-74
2019-05-09T02:43:49.656Z,-75
2019-05-09T02:46:31.525Z,-72
2019-05-09T02:48:59.657Z,-73
2019-05-09T02:51:29.200Z,-71
2019-05-09T02:53:58.599Z,-71
2019-05-09T02:56:29.445Z,-74
2019-05-09T02:59:03.429Z,-71
2019-05-09T03:01:41.252Z,-70
2019-05-09T03:04:09.032Z,-72
2019-05-09T03:06:38.856Z,-72
2019-05-09T03:09:08.964Z,-72
2019-05-09T03:11:38.793Z,-73
2019-05-09T03:14:09.155Z,-71
2019-05-09T03:16:39.453Z,-72
2019-05-09T03:19:08.739Z,-71
2019-05-09T03:21:41.132Z,-72
2019-05-09T03:24:10.058Z,-71
2019-05-09T03:26:40.442Z,-74
2019-05-09T03:29:43.016Z,-73
2019-05-09T03:32:10.803Z,-72
2019-05-09T03:34:38.611Z,-72
2019-05-09T03:37:08.448Z,-71
2019-05-09T03:39:37.743Z,-71
2019-05-09T03:42:07.848Z,-71
2019-05-09T03:44:35.676Z,-72
2019-05-09T03:47:13.615Z,-71
2019-05-09T03:49:41.472Z,-73
2019-05-09T03:52:09.251Z,-70
2019-05-09T03:54:39.946Z,-71
2019-05-09T03:57:28.326Z,-73
2019-05-09T03:59:57.300Z,-71
2019-05-09T04:02:25.362Z,-71
2019-05-09T04:04:53.136Z,-71
2019-05-09T04:07:21.092Z,-73
2019-05-09T04:09:49.134Z,-71
2019-05-09T04:12:18.089Z,-71
2019-05-09T04:14:47.940Z,-72
2019-05-09T04:17:18.151Z,-72
2019-05-09T04:19:47.875Z,-71
2019-05-09T04:22:18.006Z,-71
2019-05-09T04:24:47.413Z,-70
2019-05-09T04:27:22.753Z,-73
2019-05-09T04:29:50.708Z,-71
2019-05-09T04:32:18.494Z,-71
2019-05-09T04:34:47.288Z,-74
2019-05-09T04:37:15.318Z,-73
2019-05-09T04:39:43.128Z,-73
2019-05-09T04:42:10.919Z,-75
2019-05-09T04:44:57.556Z,-73
2019-05-09T04:47:23.999Z,-73
2019-05-09T04:49:52.850Z,-73
2019-05-09T04:52:20.650Z,-72
2019-05-09T04:54:48.683Z,-72
2019-05-09T04:57:17.864Z,-73
2019-05-09T04:59:47.522Z,-76
2019-05-09T05:02:27.584Z,-71
2019-05-09T05:04:55.373Z,-72
2019-05-09T05:07:23.189Z,-73
2019-05-09T05:09:51.127Z,-72
2019-05-09T05:12:18.955Z,-72
2019-05-09T05:14:47.619Z,-73
2019-05-09T05:17:17.775Z,-74
2019-05-09T05:19:47.444Z,-72
2019-05-09T05:22:29.283Z,-73
2019-05-09T05:25:00.025Z,-71
2019-05-09T05:27:27.992Z,-74
2019-05-09T05:29:58.093Z,-72
2019-05-09T05:32:34.422Z,-74
2019-05-09T05:35:07.745Z,-73
2019-05-09T05:37:35.537Z,-74
2019-05-09T05:40:04.234Z,-75
2019-05-09T05:42:32.053Z,-75
2019-05-09T05:44:59.846Z,-74
2019-05-09T05:47:39.788Z,-74
2019-05-09T05:50:08.426Z,-70
2019-05-09T05:52:37.525Z,-72
2019-05-09T05:55:07.546Z,-72
2019-05-09T05:57:35.256Z,-70
2019-05-09T06:00:03.305Z,-71
2019-05-09T06:02:31.094Z,-70
2019-05-09T06:04:58.914Z,-68
2019-05-09T06:07:28.486Z,-69
2019-05-09T06:09:57.565Z,-64
2019-05-09T06:12:27.654Z,-67
2019-05-09T06:14:55.308Z,-66
2019-05-09T06:17:23.130Z,-67
2019-05-09T06:19:50.925Z,-66
2019-05-09T06:22:18.735Z,-68
2019-05-09T06:24:47.888Z,-65
2019-05-09T06:27:18.101Z,-66
2019-05-09T06:29:47.719Z,-66
2019-05-09T06:32:15.582Z,-66
2019-05-09T06:34:43.393Z,-66
2019-05-09T06:37:11.603Z,-66
2019-05-09T06:39:39.413Z,-67
2019-05-09T06:42:09.017Z,-66
2019-05-09T06:45:07.594Z,-66
2019-05-09T06:47:38.163Z,-65
2019-05-09T06:50:08.266Z,-68
2019-05-09T06:52:37.553Z,-70
2019-05-09T06:55:08.459Z,-65
2019-05-09T06:57:40.092Z,-67
2019-05-09T07:00:10.686Z,-67
2019-05-09T07:03:03.890Z,-66
2019-05-09T07:05:49.695Z,-66
2019-05-09T07:08:31.998Z,-65
2019-05-09T07:10:59.908Z,-68
2019-05-09T07:13:27.714Z,-66
2019-05-09T07:15:55.786Z,-68
2019-05-09T07:18:23.572Z,-65
2019-05-09T07:20:51.437Z,-66
2019-05-09T07:23:19.210Z,-67
2019-05-09T07:26:17.486Z,-65
2019-05-09T07:28:45.382Z,-67
2019-05-09T07:31:38.546Z,-66
2019-05-09T07:34:19.498Z,-66
2019-05-09T07:36:47.735Z,-66
2019-05-09T07:39:17.605Z,-68
2019-05-09T07:41:47.715Z,-66
2019-05-09T07:44:15.196Z,-67
2019-05-09T07:46:50.175Z,-66
2019-05-09T07:49:18.008Z,-66
2019-05-09T07:51:47.755Z,-69
2019-05-09T07:54:22.060Z,-66
2019-05-09T07:56:45.505Z,-66
2019-05-09T07:59:13.422Z,-68
2019-05-09T08:01:41.183Z,-66
2019-05-09T08:04:08.994Z,-67
2019-05-09T08:06:37.989Z,-67
2019-05-09T08:09:08.370Z,-66
2019-05-09T08:11:37.684Z,-68
2019-05-09T08:14:10.445Z,-67
2019-05-09T08:16:37.780Z,-66
2019-05-09T08:19:07.329Z,-66
2019-05-09T08:21:34.839Z,-66
2019-05-09T08:24:02.683Z,-70
2019-05-09T08:26:30.505Z,-66
2019-05-09T08:28:59.649Z,-65
2019-05-09T08:31:28.188Z,-67
2019-05-09T08:33:59.033Z,-66
2019-05-09T08:36:28.003Z,-66
2019-05-09T08:38:58.390Z,-66
2019-05-09T08:41:25.479Z,-67
2019-05-09T08:43:53.329Z,-67
2019-05-09T08:46:21.121Z,-65
2019-05-09T08:48:48.909Z,-67
2019-05-09T08:52:05.979Z,-67
2019-05-09T08:54:38.031Z,-67
2019-05-09T08:57:07.666Z,-66
2019-05-09T08:59:35.430Z,-66
2019-05-09T09:02:15.294Z,-66
2019-05-09T09:04:33.170Z,-65
2019-05-09T09:07:01.029Z,-67
2019-05-09T09:09:28.818Z,-66
2019-05-09T09:11:58.311Z,-64
2019-05-09T09:14:27.879Z,-66
2019-05-09T09:16:57.568Z,-69
2019-05-09T09:19:27.874Z,-68
2019-05-09T09:21:59.622Z,-66
2019-05-09T09:24:24.988Z,-65
2019-05-09T09:26:52.802Z,-69
2019-05-09T09:29:21.812Z,-66
2019-05-09T09:31:49.596Z,-68
2019-05-09T09:34:18.185Z,-68
2019-05-09T09:36:48.070Z,-68
2019-05-09T09:39:18.352Z,-67
2019-05-09T09:41:48.145Z,-66
2019-05-09T09:44:17.797Z,-65
2019-05-09T09:46:44.990Z,-66
2019-05-09T09:49:12.808Z,-69
2019-05-09T09:51:40.636Z,-67
2019-05-09T09:54:09.060Z,-65
2019-05-09T09:56:38.638Z,-71
2019-05-09T09:59:18.888Z,-67
2019-05-09T10:01:47.823Z,-69
2019-05-09T10:04:23.870Z,-67
2019-05-09T10:06:48.222Z,-67
2019-05-09T10:09:17.500Z,-67
2019-05-09T10:11:48.124Z,-67
2019-05-09T10:14:20.161Z,-67
2019-05-09T10:17:10.510Z,-67
2019-05-09T10:20:13.106Z,-67
2019-05-09T10:22:46.340Z,-67
2019-05-09T10:25:10.668Z,-69
2019-05-09T10:27:38.770Z,-67
2019-05-09T10:30:09.098Z,-68
2019-05-09T10:32:38.341Z,-68
2019-05-09T10:35:08.605Z,-66
2019-05-09T10:37:39.287Z,-67
2019-05-09T10:40:06.091Z,-65
2019-05-09T10:43:02.319Z,-67
2019-05-09T10:45:49.714Z,-69
2019-05-09T10:48:23.799Z,-68
2019-05-09T10:50:53.818Z,-69
2019-05-09T10:53:18.013Z,-68
2019-05-09T10:55:48.058Z,-67
2019-05-09T10:58:15.644Z,-67
2019-05-09T11:00:43.460Z,-67
2019-05-09T11:03:11.304Z,-69
2019-05-09T11:05:39.315Z,-66
2019-05-09T11:08:08.206Z,-66
2019-05-09T11:10:38.839Z,-67
2019-05-09T11:13:07.571Z,-68
2019-05-09T11:15:37.487Z,-68
2019-05-09T11:18:07.901Z,-67
2019-05-09T11:20:35.164Z,-67
2019-05-09T11:23:02.966Z,-68
2019-05-09T11:25:30.756Z,-67
2019-05-09T11:28:09.921Z,-67
2019-05-09T11:30:28.325Z,-68
2019-05-09T11:32:56.188Z,-66
2019-05-09T11:35:23.999Z,-68
2019-05-09T11:37:51.816Z,-67
2019-05-09T11:40:19.637Z,-67
2019-05-09T11:42:48.256Z,-68
2019-05-09T11:45:18.089Z,-69
2019-05-09T11:47:46.716Z,-68
2019-05-09T11:50:15.011Z,-67
2019-05-09T11:52:42.823Z,-69
2019-05-09T11:55:28.659Z,-69
2019-05-09T11:57:40.390Z,-71
2019-05-09T12:00:09.114Z,-67
2019-05-09T12:02:38.530Z,-67
2019-05-09T12:05:08.723Z,-68
2019-05-09T12:07:37.933Z,-68
2019-05-09T12:10:07.828Z,-67
2019-05-09T12:12:38.841Z,-67
2019-05-09T12:15:08.576Z,-69
2019-05-09T12:17:50.963Z,-66
2019-05-09T12:20:12.305Z,-67
2019-05-09T12:22:36.344Z,-66
2019-05-09T12:25:04.481Z,-67
2019-05-09T12:27:32.381Z,-70
2019-05-09T12:30:00.212Z,-65
2019-05-09T12:32:28.479Z,-67
2019-05-09T12:34:57.739Z,-68
2019-05-09T12:37:27.999Z,-67
2019-05-09T12:39:55.615Z,-67
2019-05-09T12:42:23.426Z,-67
2019-05-09T12:44:51.132Z,-71
2019-05-09T12:47:19.259Z,-67
2019-05-09T12:49:48.781Z,-66
2019-05-09T12:52:18.572Z,-67
2019-05-09T12:54:48.355Z,-68
2019-05-09T12:57:18.920Z,-66
2019-05-09T12:59:49.821Z,-67
2019-05-09T13:02:17.755Z,-69
2019-05-09T13:04:47.505Z,-67
2019-05-09T13:07:15.147Z,-68
2019-05-09T13:09:43.001Z,-67
2019-05-09T13:12:11.030Z,-66
2019-05-09T13:14:39.095Z,-67
2019-05-09T13:17:13.504Z,-68
2019-05-09T13:19:44.151Z,-67
2019-05-09T13:22:11.967Z,-67
2019-05-09T13:24:39.888Z,-68
2019-05-09T13:27:08.081Z,-67
2019-05-09T13:29:38.120Z,-69
2019-05-09T13:32:05.802Z,-69
2019-05-09T13:34:33.655Z,-66
2019-05-09T13:37:01.445Z,-68
2019-05-09T13:39:29.344Z,-66
2019-05-09T13:41:58.307Z,-68
2019-05-09T13:44:27.713Z,-66
2019-05-09T13:46:58.225Z,-66
2019-05-09T13:49:25.487Z,-66
2019-05-09T13:52:00.377Z,-67
2019-05-09T13:54:23.165Z,-67
2019-05-09T13:56:57.583Z,-66
2019-05-09T13:59:20.883Z,-70
2019-05-09T14:01:48.842Z,-67
2019-05-09T14:04:16.665Z,-66
2019-05-09T14:06:44.521Z,-67
2019-05-09T14:09:12.337Z,-65
2019-05-09T14:11:40.270Z,-68
2019-05-09T14:14:08.045Z,-67
2019-05-09T14:16:38.782Z,-67
2019-05-09T14:19:28.700Z,-67
2019-05-09T14:21:35.316Z,-67
2019-05-09T14:24:14.147Z,-66
2019-05-09T14:26:32.896Z,-67
2019-05-09T14:29:00.684Z,-66
2019-05-09T14:31:32.257Z,-66
2019-05-09T14:33:58.197Z,-67
2019-05-09T14:36:27.729Z,-66
2019-05-09T14:38:58.038Z,-66
2019-05-09T14:41:27.624Z,-68
2019-05-09T14:43:55.321Z,-67
2019-05-09T14:46:23.585Z,-67
2019-05-09T14:48:51.888Z,-66
2019-05-09T14:51:19.886Z,-66
2019-05-09T14:53:48.553Z,-68
2019-05-09T14:56:16.575Z,-66
2019-05-09T14:58:44.373Z,-68
2019-05-09T15:01:12.331Z,-68
2019-05-09T15:03:40.128Z,-67
2019-05-09T15:06:07.943Z,-67
2019-05-09T15:08:38.027Z,-66
2019-05-09T15:11:08.656Z,-68
2019-05-09T15:13:35.612Z,-67
2019-05-09T15:16:08.727Z,-68
2019-05-09T15:18:35.823Z,-66
2019-05-09T15:21:04.058Z,-67
2019-05-09T15:23:31.865Z,-68
2019-05-09T15:25:59.660Z,-67
2019-05-09T15:28:29.118Z,-66
2019-05-09T15:30:59.370Z,-68
2019-05-09T15:33:27.609Z,-69
2019-05-09T15:35:55.540Z,-68
2019-05-09T15:38:23.367Z,-69
2019-05-09T15:40:51.159Z,-67
2019-05-09T15:43:18.998Z,-68
2019-05-09T15:45:53.366Z,-67
2019-05-09T15:48:21.764Z,-67
2019-05-09T15:50:49.612Z,-69
2019-05-09T15:53:18.447Z,-68
2019-05-09T15:55:48.069Z,-67
2019-05-09T15:58:18.805Z,-66
2019-05-09T16:00:47.807Z,-66
2019-05-09T16:03:15.423Z,-66
2019-05-09T16:05:43.240Z,-65
2019-05-09T16:08:11.658Z,-69
2019-05-09T16:10:39.625Z,-66
2019-05-09T16:13:08.197Z,-68
2019-05-09T16:15:38.189Z,-66
2019-05-09T16:18:08.428Z,-68
2019-05-09T16:20:38.465Z,-65
2019-05-09T16:23:08.188Z,-67
2019-05-09T16:25:35.032Z,-64
2019-05-09T16:28:02.942Z,-68
2019-05-09T16:30:30.721Z,-65
2019-05-09T16:32:58.706Z,-66
2019-05-09T16:35:28.630Z,-67
2019-05-09T16:38:05.283Z,-68
2019-05-09T16:40:27.971Z,-66
2019-05-09T16:42:58.091Z,-66
2019-05-09T16:45:25.875Z,-67
2019-05-09T16:47:53.658Z,-66
2019-05-09T16:50:21.789Z,-68
2019-05-09T16:52:49.625Z,-65
2019-05-09T16:55:22.611Z,-67
2019-05-09T16:57:50.442Z,-68
2019-05-09T17:00:38.259Z,-67
2019-05-09T17:03:08.007Z,-68
2019-05-09T17:05:37.419Z,-66
2019-05-09T17:08:05.375Z,-65
2019-05-09T17:10:33.202Z,-66
2019-05-09T17:13:00.999Z,-67
2019-05-09T17:15:29.339Z,-66
2019-05-09T17:17:57.266Z,-66
2019-05-09T17:20:30.965Z,-67
2019-05-09T17:23:15.219Z,-64
2019-05-09T17:25:43.274Z,-66
2019-05-09T17:28:11.176Z,-69
2019-05-09T17:30:39.141Z,-65
2019-05-09T17:33:07.881Z,-70
2019-05-09T17:35:35.837Z,-67
2019-05-09T17:38:03.642Z,-66
2019-05-09T17:40:31.436Z,-66
2019-05-09T17:42:59.502Z,-67
2019-05-09T17:45:27.347Z,-67
2019-05-09T17:47:55.127Z,-66
2019-05-09T17:50:22.922Z,-66
2019-05-09T17:52:50.768Z,-68
2019-05-09T17:55:18.560Z,-66
2019-05-09T17:57:47.950Z,-66
2019-05-09T18:00:21.676Z,-67
2019-05-09T18:02:48.616Z,-65
2019-05-09T18:05:16.678Z,-66
2019-05-09T18:07:44.463Z,-68
2019-05-09T18:10:13.917Z,-67
2019-05-09T18:12:41.722Z,-70
2019-05-09T18:15:10.069Z,-69
2019-05-09T18:17:38.368Z,-67
2019-05-09T18:20:08.060Z,-68
2019-05-09T18:22:35.992Z,-68
2019-05-09T18:25:04.787Z,-67
2019-05-09T18:27:32.595Z,-67
2019-05-09T18:30:00.457Z,-66
2019-05-09T18:32:40.325Z,-66
2019-05-09T18:35:16.513Z,-66
2019-05-09T18:37:44.344Z,-67
2019-05-09T18:40:12.139Z,-66
2019-05-09T18:42:39.968Z,-67
2019-05-09T18:45:08.824Z,-65
2019-05-09T18:47:36.658Z,-67
2019-05-09T18:50:05.558Z,-65
2019-05-09T18:52:33.371Z,-71
2019-05-09T18:55:01.182Z,-67
2019-05-09T18:57:29.053Z,-67
2019-05-09T18:59:56.861Z,-66
2019-05-09T19:02:24.743Z,-66
2019-05-09T19:04:52.546Z,-66
2019-05-09T19:07:22.778Z,-67
2019-05-09T19:09:50.058Z,-68
2019-05-09T19:12:18.033Z,-68
2019-05-09T19:14:47.190Z,-68
2019-05-09T19:17:40.650Z,-66
2019-05-09T19:20:34.408Z,-69
2019-05-09T19:23:02.329Z,-69
2019-05-09T19:25:30.653Z,-66
2019-05-09T19:27:58.449Z,-67
2019-05-09T19:30:26.352Z,-67
2019-05-09T19:32:54.176Z,-67
2019-05-09T19:35:22.054Z,-67
2019-05-09T19:37:49.929Z,-66
2019-05-09T19:40:20.141Z,-67
2019-05-09T19:42:47.496Z,-68
2019-05-09T19:45:15.625Z,-69
2019-05-09T19:47:43.464Z,-69
2019-05-09T19:50:11.710Z,-67
2019-05-09T19:52:39.599Z,-70
2019-05-09T19:55:07.533Z,-67
2019-05-09T19:57:35.387Z,-67
2019-05-09T20:00:03.684Z,-66
2019-05-09T20:02:32.339Z,-66
2019-05-09T20:05:00.171Z,-67
2019-05-09T20:07:28.014Z,-66
2019-05-09T20:10:02.601Z,-68
2019-05-09T20:12:40.342Z,-66
2019-05-09T20:15:10.067Z,-67
2019-05-09T20:17:37.862Z,-68
2019-05-09T20:20:06.348Z,-66
2019-05-09T20:22:34.191Z,-66
2019-05-09T20:25:02.016Z,-68
2019-05-09T20:27:29.830Z,-66
2019-05-09T20:29:57.657Z,-68
2019-05-09T20:32:25.514Z,-66
2019-05-09T20:34:53.334Z,-67
2019-05-09T20:37:21.120Z,-65
2019-05-09T20:39:49.073Z,-66
2019-05-09T20:42:16.926Z,-66
2019-05-09T20:44:44.797Z,-70
2019-05-09T20:47:12.616Z,-68
2019-05-09T20:49:41.214Z,-67
2019-05-09T20:52:09.101Z,-68
2019-05-09T20:54:37.007Z,-66
2019-05-09T20:57:04.767Z,-69
2019-05-09T20:59:32.572Z,-69
2019-05-09T21:02:00.431Z,-68
2019-05-09T21:04:28.319Z,-68
2019-05-09T21:06:56.277Z,-68
2019-05-09T21:09:24.342Z,-70
2019-05-09T21:11:52.161Z,-68
2019-05-09T21:14:19.974Z,-67
2019-05-09T21:16:47.809Z,-67
2019-05-09T21:19:15.663Z,-67
2019-05-09T21:21:43.535Z,-68
2019-05-09T21:24:11.447Z,-70
2019-05-09T21:26:39.238Z,-68
2019-05-09T21:29:07.052Z,-69
2019-05-09T21:31:34.851Z,-67
2019-05-09T21:34:02.821Z,-67
2019-05-09T21:36:30.629Z,-68
2019-05-09T21:38:58.392Z,-67
2019-05-09T21:41:26.216Z,-69
2019-05-09T21:43:54.210Z,-67
2019-05-09T21:46:22.098Z,-70
2019-05-09T21:48:49.884Z,-69
2019-05-09T21:51:17.715Z,-68
2019-05-09T21:53:45.594Z,-68
2019-05-09T21:56:13.443Z,-69
2019-05-09T21:58:41.237Z,-67
2019-05-09T22:01:15.646Z,-68
2019-05-09T22:03:43.541Z,-69
2019-05-09T22:06:11.475Z,-68
2019-05-09T22:08:39.425Z,-70
2019-05-09T22:11:07.245Z,-71
2019-05-09T22:13:35.035Z,-69
2019-05-09T22:16:03.093Z,-71
2019-05-09T22:18:30.886Z,-69
2019-05-09T22:20:58.713Z,-67
2019-05-09T22:23:26.807Z,-73
2019-05-09T22:25:54.659Z,-76
2019-05-09T22:28:22.424Z,-73
2019-05-09T22:30:50.420Z,-75
2019-05-09T22:33:18.198Z,-72
2019-05-09T22:35:46.006Z,-75
2019-05-09T22:38:13.853Z,-73
2019-05-09T22:40:41.688Z,-74
2019-05-09T22:43:09.531Z,-75
2019-05-09T22:45:37.636Z,-72
2019-05-09T22:48:05.438Z,-73
2019-05-09T22:50:33.235Z,-73
2019-05-09T22:53:01.039Z,-72
2019-05-09T22:55:28.899Z,-74
2019-05-09T22:57:56.719Z,-72
2019-05-09T23:00:24.677Z,-73
2019-05-09T23:02:52.594Z,-74
2019-05-09T23:05:20.354Z,-73
2019-05-09T23:07:48.167Z,-73
2019-05-09T23:10:16.269Z,-73
2019-05-09T23:12:44.090Z,-72
2019-05-09T23:15:16.220Z,-74
2019-05-09T23:17:44.194Z,-74
2019-05-09T23:20:33.362Z,-74
2019-05-09T23:23:22.376Z,-73
2019-05-09T23:25:50.572Z,-73
2019-05-09T23:28:21.475Z,-74
2019-05-09T23:30:51.866Z,-72
2019-05-09T23:33:20.857Z,-74
2019-05-09T23:35:50.722Z,-74
2019-05-09T23:38:18.758Z,-72
2019-05-09T23:40:46.979Z,-72
2019-05-09T23:43:14.766Z,-73
2019-05-09T23:45:44.108Z,-73
2019-05-09T23:48:13.573Z,-73
2019-05-09T23:50:41.555Z,-72
2019-05-09T23:53:09.653Z,-74
2019-05-09T23:55:59.659Z,-76
2019-05-09T23:58:45.707Z,-74
